createdAt,value
2023-01-28T00:01:16.575Z,15.20
2023-01-28T00:03:46.306Z,15.20
2023-01-28T00:06:17.757Z,15.20
2023-01-28T00:08:47.629Z,15.20
2023-01-28T00:11:17.290Z,15.20
2023-01-28T00:13:47.491Z,15.20
2023-01-28T00:16:17.315Z,15.20
2023-01-28T00:18:47.155Z,15.30
2023-01-28T00:21:18.301Z,15.30
2023-01-28T00:23:56.149Z,15.30
2023-01-28T00:26:27.167Z,15.30
2023-01-28T00:28:57.038Z,15.40
2023-01-28T00:31:29.118Z,15.40
2023-01-28T00:33:59.676Z,15.40
2023-01-28T00:36:29.860Z,15.40
2023-01-28T00:39:01.973Z,15.50
2023-01-28T00:41:33.266Z,15.50
2023-01-28T00:44:04.288Z,15.50
2023-01-28T00:46:34.121Z,15.60
2023-01-28T00:49:04.016Z,15.60
2023-01-28T00:51:33.852Z,15.70
2023-01-28T00:54:03.848Z,15.80
2023-01-28T00:56:33.667Z,15.80
2023-01-28T00:59:03.359Z,15.90
2023-01-28T01:01:33.425Z,15.90
2023-01-28T01:04:06.316Z,16.00
2023-01-28T01:06:41.626Z,16.10
2023-01-28T01:09:14.101Z,16.20
2023-01-28T01:11:43.825Z,16.20
2023-01-28T01:14:14.153Z,16.30
2023-01-28T01:16:43.892Z,16.40
2023-01-28T01:19:13.601Z,16.50
2023-01-28T01:21:43.410Z,16.50
2023-01-28T01:24:13.158Z,16.60
2023-01-28T01:26:42.855Z,16.70
2023-01-28T01:29:12.721Z,16.70
2023-01-28T01:31:42.627Z,16.90
2023-01-28T01:34:12.754Z,16.90
2023-01-28T01:36:42.596Z,17.00
2023-01-28T01:39:15.071Z,17.00
2023-01-28T01:41:45.099Z,17.10
2023-01-28T01:44:55.827Z,17.20
2023-01-28T01:47:42.624Z,17.30
2023-01-28T01:50:39.171Z,17.40
2023-01-28T01:53:19.224Z,17.50
2023-01-28T01:55:52.159Z,17.60
2023-01-28T01:58:26.239Z,17.60
2023-01-28T02:00:55.917Z,17.70
2023-01-28T02:03:39.192Z,17.80
2023-01-28T02:06:10.181Z,17.90
2023-01-28T02:08:39.964Z,18.00
2023-01-28T02:11:12.151Z,18.00
2023-01-28T02:13:49.306Z,18.10
2023-01-28T02:16:19.982Z,18.20
2023-01-28T02:18:49.823Z,18.30
2023-01-28T02:21:58.632Z,18.40
2023-01-28T02:24:57.591Z,18.50
2023-01-28T02:27:57.314Z,18.60
2023-01-28T02:30:40.952Z,18.70
2023-01-28T02:33:20.827Z,18.80
2023-01-28T02:35:56.252Z,19.00
2023-01-28T02:38:41.980Z,19.00
2023-01-28T02:41:18.008Z,19.20
2023-01-28T02:43:49.393Z,19.30
2023-01-28T02:46:59.800Z,19.30
2023-01-28T02:49:46.003Z,19.50
2023-01-28T02:53:07.764Z,19.60
2023-01-28T02:56:06.161Z,19.80
2023-01-28T02:58:44.881Z,19.90
2023-01-28T03:01:32.046Z,20.00
2023-01-28T03:04:19.273Z,20.00
2023-01-28T03:06:55.964Z,20.10
2023-01-28T03:09:28.866Z,20.20
2023-01-28T03:12:39.783Z,20.20
2023-01-28T03:15:36.547Z,20.40
2023-01-28T03:18:37.119Z,20.50
2023-01-28T03:21:46.826Z,20.50
2023-01-28T03:24:45.288Z,20.60
2023-01-28T03:27:47.482Z,20.70
2023-01-28T03:30:44.469Z,20.80
2023-01-28T03:33:34.268Z,20.90
2023-01-28T03:36:24.923Z,21.00
2023-01-28T03:38:54.965Z,21.00
2023-01-28T03:41:26.964Z,21.10
2023-01-28T03:43:57.928Z,21.10
2023-01-28T03:46:28.438Z,21.20
2023-01-28T03:48:58.526Z,21.20
2023-01-28T03:51:28.454Z,21.30
2023-01-28T03:53:58.404Z,21.40
2023-01-28T03:56:30.266Z,21.50
2023-01-28T03:59:00.144Z,21.60
2023-01-28T04:01:30.011Z,21.60
2023-01-28T04:03:59.988Z,21.70
2023-01-28T04:06:30.877Z,21.80
2023-01-28T04:09:03.749Z,21.90
2023-01-28T04:11:33.678Z,22.00
2023-01-28T04:14:03.426Z,22.10
2023-01-28T04:16:33.351Z,22.20
2023-01-28T04:19:03.358Z,22.20
2023-01-28T04:21:33.388Z,22.40
2023-01-28T04:24:03.705Z,22.50
2023-01-28T04:26:33.799Z,22.60
2023-01-28T04:29:03.770Z,22.70
2023-01-28T04:31:34.068Z,22.70
2023-01-28T04:34:03.971Z,22.80
2023-01-28T04:36:34.021Z,22.90
2023-01-28T04:39:03.929Z,22.90
2023-01-28T04:41:33.768Z,23.00
2023-01-28T04:44:03.440Z,23.10
2023-01-28T04:46:34.144Z,23.20
2023-01-28T04:49:05.254Z,23.30
2023-01-28T04:51:35.003Z,23.30
2023-01-28T04:54:04.973Z,23.40
2023-01-28T04:56:34.843Z,23.50
2023-01-28T04:59:04.727Z,23.60
2023-01-28T05:01:34.543Z,23.70
2023-01-28T05:04:07.412Z,23.70
2023-01-28T05:06:37.499Z,23.80
2023-01-28T05:09:07.384Z,23.90
2023-01-28T05:11:39.185Z,23.90
2023-01-28T05:14:09.221Z,23.90
2023-01-28T05:16:39.102Z,24.00
2023-01-28T05:19:09.120Z,24.00
2023-01-28T05:21:38.916Z,24.10
2023-01-28T05:24:09.338Z,24.20
2023-01-28T05:26:39.134Z,24.20
2023-01-28T05:29:09.155Z,24.30
2023-01-28T05:31:39.050Z,24.30
2023-01-28T05:34:09.008Z,24.30
2023-01-28T05:36:39.007Z,24.40
2023-01-28T05:39:09.567Z,24.50
2023-01-28T05:41:39.415Z,24.50
2023-01-28T05:44:09.150Z,24.60
2023-01-28T05:46:39.984Z,24.70
2023-01-28T05:49:13.992Z,24.70
2023-01-28T05:51:44.642Z,24.70
2023-01-28T05:54:14.827Z,24.80
2023-01-28T05:56:44.768Z,24.80
2023-01-28T05:59:15.174Z,24.90
2023-01-28T06:01:45.022Z,24.90
2023-01-28T06:04:14.935Z,25.00
2023-01-28T06:06:44.873Z,25.10
2023-01-28T06:09:14.621Z,25.10
2023-01-28T06:11:44.545Z,25.10
2023-01-28T06:14:14.630Z,25.20
2023-01-28T06:16:44.441Z,25.10
2023-01-28T06:19:14.169Z,25.20
2023-01-28T06:21:45.328Z,25.30
2023-01-28T06:24:15.959Z,25.30
2023-01-28T06:26:45.714Z,25.40
2023-01-28T06:29:15.555Z,25.30
2023-01-28T06:31:45.472Z,25.30
2023-01-28T06:34:15.586Z,25.30
2023-01-28T06:36:45.581Z,25.40
2023-01-28T06:39:15.441Z,25.50
2023-01-28T06:41:45.374Z,25.50
2023-01-28T06:44:17.983Z,25.60
2023-01-28T06:46:47.739Z,25.60
2023-01-28T06:49:17.725Z,25.60
2023-01-28T06:51:47.575Z,25.60
2023-01-28T06:54:18.064Z,25.60
2023-01-28T06:56:47.873Z,25.70
2023-01-28T06:59:17.675Z,25.80
2023-01-28T07:01:47.601Z,25.80
2023-01-28T07:04:17.472Z,25.90
2023-01-28T07:06:47.206Z,25.90
2023-01-28T07:09:17.077Z,26.00
2023-01-28T07:11:46.867Z,26.10
2023-01-28T07:14:16.535Z,26.00
2023-01-28T07:16:46.373Z,26.10
2023-01-28T07:19:16.111Z,26.10
2023-01-28T07:21:45.981Z,26.10
2023-01-28T07:24:16.018Z,26.20
2023-01-28T07:26:45.763Z,26.20
2023-01-28T07:29:15.782Z,26.30
2023-01-28T07:31:45.819Z,26.30
2023-01-28T07:34:15.925Z,26.40
2023-01-28T07:36:45.728Z,26.40
2023-01-28T07:39:15.512Z,26.50
2023-01-28T07:41:45.290Z,26.50
2023-01-28T07:44:15.155Z,26.50
2023-01-28T07:46:44.947Z,26.50
2023-01-28T07:49:15.384Z,26.60
2023-01-28T07:51:48.261Z,26.60
2023-01-28T07:54:18.171Z,26.60
2023-01-28T07:56:47.926Z,26.60
2023-01-28T07:59:17.850Z,26.60
2023-01-28T08:01:47.569Z,26.60
2023-01-28T08:04:17.371Z,26.60
2023-01-28T08:06:47.186Z,26.70
2023-01-28T08:09:16.976Z,26.70
2023-01-28T08:11:46.735Z,26.80
2023-01-28T08:14:16.593Z,26.70
2023-01-28T08:16:46.308Z,26.80
2023-01-28T08:19:16.105Z,26.80
2023-01-28T08:21:45.877Z,26.80
2023-01-28T08:24:15.624Z,26.80
2023-01-28T08:26:45.840Z,26.80
2023-01-28T08:29:15.588Z,26.90
2023-01-28T08:31:45.420Z,26.90
2023-01-28T08:34:15.190Z,26.90
2023-01-28T08:36:45.150Z,26.90
2023-01-28T08:39:14.926Z,26.90
2023-01-28T08:41:44.756Z,26.90
2023-01-28T08:44:14.604Z,26.90
2023-01-28T08:46:44.603Z,26.80
2023-01-28T08:49:14.650Z,26.80
2023-01-28T08:51:45.820Z,26.80
2023-01-28T08:54:16.033Z,26.80
2023-01-28T08:56:46.737Z,26.90
2023-01-28T08:59:16.788Z,26.80
2023-01-28T09:01:47.060Z,26.90
2023-01-28T09:04:17.145Z,26.80
2023-01-28T09:06:46.859Z,26.90
2023-01-28T09:09:16.877Z,26.80
2023-01-28T09:11:46.673Z,26.80
2023-01-28T09:14:16.443Z,26.80
2023-01-28T09:16:46.272Z,26.80
2023-01-28T09:19:16.133Z,26.80
2023-01-28T09:21:45.834Z,26.80
2023-01-28T09:24:15.726Z,26.80
2023-01-28T09:26:46.401Z,26.80
2023-01-28T09:29:16.200Z,26.80
2023-01-28T09:31:46.413Z,26.70
2023-01-28T09:34:16.231Z,26.70
2023-01-28T09:36:46.100Z,26.70
2023-01-28T09:39:15.893Z,26.70
2023-01-28T09:42:20.863Z,26.70
2023-01-28T09:45:18.012Z,26.70
2023-01-28T09:48:08.295Z,26.60
2023-01-28T09:50:42.147Z,26.60
2023-01-28T09:53:34.295Z,26.50
2023-01-28T09:56:13.696Z,26.50
2023-01-28T09:58:45.241Z,26.50
2023-01-28T10:01:44.350Z,26.50
2023-01-28T10:04:43.319Z,26.40
2023-01-28T10:07:31.774Z,26.40
2023-01-28T10:10:18.444Z,26.40
2023-01-28T10:13:05.929Z,26.40
2023-01-28T10:16:14.932Z,26.40
2023-01-28T10:19:00.662Z,26.30
2023-01-28T10:21:41.362Z,26.30
2023-01-28T10:24:36.348Z,26.30
2023-01-28T10:27:18.623Z,26.30
2023-01-28T10:29:51.846Z,26.20
2023-01-28T10:32:45.904Z,26.10
2023-01-28T10:35:15.691Z,26.10
2023-01-28T10:37:45.615Z,26.00
2023-01-28T10:40:20.198Z,26.00
2023-01-28T10:42:49.963Z,25.90
2023-01-28T10:45:34.487Z,25.80
2023-01-28T10:48:14.196Z,25.80
2023-01-28T10:50:54.351Z,25.70
2023-01-28T10:53:37.933Z,25.60
2023-01-28T10:56:16.800Z,25.50
2023-01-28T10:59:07.439Z,25.40
2023-01-28T11:01:55.094Z,25.30
2023-01-28T11:04:31.944Z,25.20
2023-01-28T11:07:09.711Z,25.00
2023-01-28T11:09:40.833Z,24.90
2023-01-28T11:12:31.139Z,24.90
2023-01-28T11:15:06.969Z,24.70
2023-01-28T11:17:41.938Z,24.70
2023-01-28T11:20:25.841Z,24.60
2023-01-28T11:22:56.643Z,24.50
2023-01-28T11:25:34.531Z,24.40
2023-01-28T11:28:10.237Z,24.30
2023-01-28T11:30:43.561Z,24.30
2023-01-28T11:33:25.856Z,24.20
2023-01-28T11:36:05.914Z,24.10
2023-01-28T11:38:36.355Z,24.00
2023-01-28T11:41:06.298Z,24.00
2023-01-28T11:43:36.276Z,23.90
2023-01-28T11:46:35.353Z,23.80
2023-01-28T11:49:34.293Z,23.80
2023-01-28T11:52:55.358Z,23.70
2023-01-28T11:55:55.760Z,23.60
2023-01-28T11:59:00.302Z,23.50
2023-01-28T12:02:09.275Z,23.40
2023-01-28T12:05:11.855Z,23.30
2023-01-28T12:08:20.626Z,23.20
2023-01-28T12:11:47.211Z,23.10
2023-01-28T12:14:56.132Z,23.00
2023-01-28T12:18:04.899Z,22.80
2023-01-28T12:21:00.409Z,22.60
2023-01-28T12:23:56.855Z,22.40
2023-01-28T12:26:47.356Z,22.30
2023-01-28T12:29:56.277Z,22.20
2023-01-28T12:32:46.654Z,22.20
2023-01-28T12:35:45.333Z,22.10
2023-01-28T12:38:38.586Z,22.10
2023-01-28T12:41:23.709Z,22.10
2023-01-28T12:44:26.732Z,22.10
2023-01-28T12:47:04.325Z,22.00
2023-01-28T12:50:03.950Z,22.00
2023-01-28T12:52:41.989Z,22.00
2023-01-28T12:55:42.875Z,21.90
2023-01-28T12:58:23.434Z,21.90
2023-01-28T13:01:02.975Z,21.80
2023-01-28T13:03:51.843Z,21.80
2023-01-28T13:06:37.957Z,21.70
2023-01-28T13:09:20.441Z,21.60
2023-01-28T13:11:53.121Z,21.50
2023-01-28T13:14:33.800Z,21.50
2023-01-28T13:17:30.629Z,21.40
2023-01-28T13:20:02.021Z,21.30
2023-01-28T13:22:37.758Z,21.20
2023-01-28T13:25:31.596Z,21.10
2023-01-28T13:28:08.006Z,21.00
2023-01-28T13:30:51.476Z,20.90
2023-01-28T13:33:42.357Z,20.90
2023-01-28T13:36:34.446Z,20.80
2023-01-28T13:39:07.895Z,20.70
2023-01-28T13:41:50.864Z,20.60
2023-01-28T13:44:36.504Z,20.50
2023-01-28T13:47:27.672Z,20.40
2023-01-28T13:50:09.036Z,20.30
2023-01-28T13:52:52.808Z,20.30
2023-01-28T13:55:41.706Z,20.20
2023-01-28T13:58:37.731Z,20.10
2023-01-28T14:01:44.030Z,20.10
2023-01-28T14:04:46.103Z,20.10
2023-01-28T14:07:54.849Z,20.00
2023-01-28T14:10:37.258Z,19.90
2023-01-28T14:13:42.831Z,19.90
2023-01-28T14:16:45.076Z,19.80
2023-01-28T14:19:16.383Z,19.70
2023-01-28T14:21:46.398Z,19.70
2023-01-28T14:24:20.890Z,19.60
2023-01-28T14:27:09.654Z,19.60
2023-01-28T14:30:18.481Z,19.50
2023-01-28T14:32:51.718Z,19.40
2023-01-28T14:35:37.098Z,19.40
2023-01-28T14:38:14.816Z,19.30
2023-01-28T14:40:45.390Z,19.20
2023-01-28T14:43:21.555Z,19.20
2023-01-28T14:46:16.217Z,19.10
2023-01-28T14:49:02.732Z,19.00
2023-01-28T14:52:11.795Z,19.00
2023-01-28T14:55:07.030Z,19.00
2023-01-28T14:58:07.673Z,18.90
2023-01-28T15:00:37.984Z,18.80
2023-01-28T15:03:28.078Z,18.70
2023-01-28T15:06:19.097Z,18.70
2023-01-28T15:08:49.180Z,18.70
2023-01-28T15:11:25.179Z,18.60
2023-01-28T15:14:01.571Z,18.60
2023-01-28T15:16:33.383Z,18.50
2023-01-28T15:19:04.575Z,18.50
2023-01-28T15:21:35.154Z,18.50
2023-01-28T15:24:05.267Z,18.40
2023-01-28T15:26:36.966Z,18.40
2023-01-28T15:29:06.793Z,18.30
2023-01-28T15:31:40.668Z,18.30
2023-01-28T15:34:19.677Z,18.20
2023-01-28T15:36:51.624Z,18.20
2023-01-28T15:39:24.274Z,18.10
2023-01-28T15:42:20.939Z,18.00
2023-01-28T15:44:52.140Z,18.00
2023-01-28T15:47:35.627Z,18.00
2023-01-28T15:50:08.472Z,17.90
2023-01-28T15:52:41.617Z,17.90
2023-01-28T15:55:41.228Z,17.90
2023-01-28T15:58:37.082Z,17.80
2023-01-28T16:01:18.853Z,17.70
2023-01-28T16:04:02.663Z,17.70
2023-01-28T16:06:44.629Z,17.70
2023-01-28T16:09:26.566Z,17.60
2023-01-28T16:12:03.189Z,17.40
2023-01-28T16:14:43.803Z,17.30
2023-01-28T16:17:19.085Z,17.20
2023-01-28T16:19:52.940Z,17.00
2023-01-28T16:22:45.140Z,16.90
2023-01-28T16:25:35.707Z,16.80
2023-01-28T16:28:14.547Z,16.80
2023-01-28T16:30:44.351Z,16.80
2023-01-28T16:33:24.204Z,16.80
2023-01-28T16:36:07.670Z,16.80
2023-01-28T16:38:38.340Z,16.80
2023-01-28T16:41:08.342Z,16.80
2023-01-28T16:43:38.049Z,16.80
2023-01-28T16:46:09.523Z,16.80
2023-01-28T16:48:39.786Z,16.80
2023-01-28T16:51:16.606Z,16.70
2023-01-28T16:53:48.325Z,16.80
2023-01-28T16:56:43.650Z,16.80
2023-01-28T16:59:14.483Z,16.80
2023-01-28T17:01:45.384Z,16.80
2023-01-28T17:04:15.707Z,16.80
2023-01-28T17:06:46.946Z,16.80
2023-01-28T17:09:17.633Z,16.70
2023-01-28T17:11:47.668Z,16.70
2023-01-28T17:14:17.554Z,16.70
2023-01-28T17:16:47.315Z,16.70
2023-01-28T17:19:19.710Z,16.60
2023-01-28T17:21:49.522Z,16.60
2023-01-28T17:24:19.394Z,16.60
2023-01-28T17:26:49.216Z,16.50
2023-01-28T17:29:19.056Z,16.50
2023-01-28T17:31:48.926Z,16.50
2023-01-28T17:34:18.838Z,16.40
2023-01-28T17:36:48.576Z,16.40
2023-01-28T17:39:18.406Z,16.40
2023-01-28T17:41:48.296Z,16.30
2023-01-28T17:44:18.227Z,16.30
2023-01-28T17:46:48.286Z,16.30
2023-01-28T17:49:18.111Z,16.30
2023-01-28T17:51:47.805Z,16.20
2023-01-28T17:54:18.625Z,16.20
2023-01-28T17:56:48.728Z,16.10
2023-01-28T17:59:18.444Z,16.00
2023-01-28T18:01:49.289Z,15.90
2023-01-28T18:04:19.258Z,15.70
2023-01-28T18:06:50.983Z,15.60
2023-01-28T18:09:21.701Z,15.70
2023-01-28T18:11:51.625Z,15.60
2023-01-28T18:14:21.407Z,15.50
2023-01-28T18:16:51.273Z,15.60
2023-01-28T18:19:21.072Z,15.60
2023-01-28T18:21:53.377Z,15.60
2023-01-28T18:24:25.985Z,15.60
2023-01-28T18:26:57.192Z,15.60
2023-01-28T18:29:28.749Z,15.60
2023-01-28T18:31:59.959Z,15.60
2023-01-28T18:34:33.279Z,15.60
2023-01-28T18:37:05.246Z,15.70
2023-01-28T18:39:35.194Z,15.70
2023-01-28T18:42:05.263Z,15.70
2023-01-28T18:44:35.214Z,15.70
2023-01-28T18:47:05.239Z,15.60
2023-01-28T18:49:35.127Z,15.60
2023-01-28T18:52:05.072Z,15.60
2023-01-28T18:54:35.465Z,15.60
2023-01-28T18:57:05.932Z,15.50
2023-01-28T18:59:35.754Z,15.50
2023-01-28T19:02:05.776Z,15.40
2023-01-28T19:04:35.523Z,15.40
2023-01-28T19:07:07.796Z,15.40
2023-01-28T19:09:37.898Z,15.40
2023-01-28T19:12:07.993Z,15.40
2023-01-28T19:14:37.819Z,15.40
2023-01-28T19:17:07.783Z,15.40
2023-01-28T19:19:37.678Z,15.40
2023-01-28T19:22:07.391Z,15.40
2023-01-28T19:24:37.298Z,15.40
2023-01-28T19:27:07.788Z,15.40
2023-01-28T19:29:37.765Z,15.40
2023-01-28T19:32:07.786Z,15.40
2023-01-28T19:34:37.808Z,15.40
2023-01-28T19:37:07.418Z,15.40
2023-01-28T19:39:37.324Z,15.40
2023-01-28T19:42:07.217Z,15.40
2023-01-28T19:44:37.532Z,15.40
2023-01-28T19:47:10.553Z,15.40
2023-01-28T19:49:40.316Z,15.40
2023-01-28T19:52:12.453Z,15.30
2023-01-28T19:54:42.368Z,15.30
2023-01-28T19:57:12.814Z,15.30
2023-01-28T19:59:42.449Z,15.30
2023-01-28T20:02:12.833Z,15.20
2023-01-28T20:04:59.711Z,15.20
2023-01-28T20:07:30.782Z,15.10
2023-01-28T20:10:00.531Z,15.10
2023-01-28T20:12:30.561Z,15.00
2023-01-28T20:15:00.356Z,15.00
2023-01-28T20:17:30.487Z,14.90
2023-01-28T20:20:00.192Z,14.90
2023-01-28T20:22:29.950Z,14.80
2023-01-28T20:24:59.749Z,14.80
2023-01-28T20:27:29.454Z,14.80
2023-01-28T20:29:59.308Z,14.80
2023-01-28T20:32:29.313Z,14.80
2023-01-28T20:34:59.189Z,14.60
2023-01-28T20:37:28.930Z,14.50
2023-01-28T20:39:58.879Z,14.50
2023-01-28T20:42:28.487Z,14.50
2023-01-28T20:44:58.410Z,14.50
2023-01-28T20:47:28.047Z,14.50
2023-01-28T20:49:57.774Z,14.50
2023-01-28T20:52:27.511Z,14.50
2023-01-28T20:54:57.309Z,14.60
2023-01-28T20:57:26.976Z,14.60
2023-01-28T20:59:56.812Z,14.60
2023-01-28T21:02:26.676Z,14.60
2023-01-28T21:04:56.688Z,14.60
2023-01-28T21:07:26.619Z,14.60
2023-01-28T21:09:56.458Z,14.60
2023-01-28T21:12:26.228Z,14.60
2023-01-28T21:14:56.040Z,14.60
2023-01-28T21:17:27.217Z,14.60
2023-01-28T21:19:57.076Z,14.60
2023-01-28T21:22:26.856Z,14.60
2023-01-28T21:24:56.645Z,14.60
2023-01-28T21:27:26.586Z,14.60
2023-01-28T21:29:56.369Z,14.60
2023-01-28T21:32:27.616Z,14.60
2023-01-28T21:34:57.639Z,14.50
2023-01-28T21:37:28.160Z,14.50
2023-01-28T21:39:57.908Z,14.50
2023-01-28T21:42:27.907Z,14.50
2023-01-28T21:44:57.638Z,14.40
2023-01-28T21:47:27.434Z,14.40
2023-01-28T21:49:57.308Z,14.40
2023-01-28T21:52:27.104Z,14.40
2023-01-28T21:54:56.957Z,14.40
2023-01-28T21:57:26.937Z,14.30
2023-01-28T21:59:57.447Z,14.30
2023-01-28T22:02:27.292Z,14.30
2023-01-28T22:04:57.352Z,14.30
2023-01-28T22:07:27.058Z,14.20
2023-01-28T22:09:56.917Z,14.20
2023-01-28T22:12:26.813Z,14.20
2023-01-28T22:14:56.692Z,14.10
2023-01-28T22:17:27.596Z,14.10
2023-01-28T22:19:57.423Z,14.10
2023-01-28T22:22:27.403Z,14.10
2023-01-28T22:24:57.037Z,14.10
2023-01-28T22:27:28.705Z,14.10
2023-01-28T22:29:59.163Z,14.00
2023-01-28T22:32:29.033Z,14.00
2023-01-28T22:34:59.120Z,14.00
2023-01-28T22:37:28.884Z,13.90
2023-01-28T22:39:58.821Z,13.90
2023-01-28T22:42:28.488Z,13.90
2023-01-28T22:44:58.484Z,13.80
2023-01-28T22:47:28.399Z,13.80
2023-01-28T22:49:58.033Z,13.80
2023-01-28T22:52:27.901Z,13.80
2023-01-28T22:54:57.728Z,13.80
2023-01-28T22:57:27.469Z,13.80
2023-01-28T23:00:00.412Z,13.70
2023-01-28T23:02:31.440Z,13.70
2023-01-28T23:05:01.469Z,13.70
2023-01-28T23:07:31.209Z,13.70
2023-01-28T23:10:01.189Z,13.70
2023-01-28T23:12:31.382Z,13.70
2023-01-28T23:15:20.858Z,13.60
2023-01-28T23:18:10.259Z,13.60
2023-01-28T23:21:01.680Z,13.60
2023-01-28T23:23:51.086Z,13.60
2023-01-28T23:26:20.909Z,13.60
2023-01-28T23:28:50.649Z,13.50
2023-01-28T23:31:20.512Z,13.50
2023-01-28T23:33:50.550Z,13.50
2023-01-28T23:36:21.261Z,13.30
2023-01-28T23:38:51.056Z,13.20
2023-01-28T23:41:20.897Z,13.00
2023-01-28T23:43:50.609Z,12.90
2023-01-28T23:46:27.403Z,12.90
2023-01-28T23:49:03.712Z,12.90
2023-01-28T23:51:33.588Z,12.90
2023-01-28T23:54:03.343Z,12.90
2023-01-28T23:56:33.052Z,12.90
2023-01-28T23:59:02.967Z,12.90
